sensor_id;sensor_type;location;lat;lon;timestamp;pressure;altitude;pressure_sealevel;temperature;humidity
33781;BME280;20097;50.832;19.100;2023-04-24T00:03:57;97395.94;;;10.48;100.00
33781;BME280;20097;50.832;19.100;2023-04-24T00:09:02;97396.94;;;10.54;100.00
33781;BME280;20097;50.832;19.100;2023-04-24T00:14:07;97395.16;;;10.54;100.00
33781;BME280;20097;50.832;19.100;2023-04-24T00:19:13;97389.72;;;10.56;100.00
33781;BME280;20097;50.832;19.100;2023-04-24T00:24:17;97384.31;;;10.57;100.00
33781;BME280;20097;50.832;19.100;2023-04-24T00:29:21;97382.53;;;10.58;100.00
33781;BME280;20097;50.832;19.100;2023-04-24T00:34:26;97381.91;;;10.56;100.00
33781;BME280;20097;50.832;19.100;2023-04-24T00:39:31;97372.69;;;10.53;100.00
33781;BME280;20097;50.832;19.100;2023-04-24T00:44:35;97363.81;;;10.48;100.00
33781;BME280;20097;50.832;19.100;2023-04-24T00:49:41;97366.63;;;10.46;100.00
33781;BME280;20097;50.832;19.100;2023-04-24T00:54:45;97367.03;;;10.43;100.00
33781;BME280;20097;50.832;19.100;2023-04-24T00:59:50;97358.34;;;10.36;100.00
33781;BME280;20097;50.832;19.100;2023-04-24T01:04:56;97355.16;;;10.41;100.00
33781;BME280;20097;50.832;19.100;2023-04-24T01:10:01;97354.56;;;10.39;100.00
33781;BME280;20097;50.832;19.100;2023-04-24T01:15:06;97348.50;;;10.32;100.00
33781;BME280;20097;50.832;19.100;2023-04-24T01:20:12;97343.28;;;10.25;100.00
33781;BME280;20097;50.832;19.100;2023-04-24T01:25:18;97338.84;;;10.19;100.00
33781;BME280;20097;50.832;19.100;2023-04-24T01:30:22;97339.59;;;10.13;100.00
33781;BME280;20097;50.832;19.100;2023-04-24T01:35:26;97334.38;;;10.13;100.00
33781;BME280;20097;50.832;19.100;2023-04-24T01:40:32;97327.16;;;10.09;100.00
33781;BME280;20097;50.832;19.100;2023-04-24T01:45:36;97326.28;;;10.02;100.00
33781;BME280;20097;50.832;19.100;2023-04-24T01:50:40;97322.22;;;9.93;100.00
33781;BME280;20097;50.832;19.100;2023-04-24T01:55:48;97315.00;;;9.88;100.00
33781;BME280;20097;50.832;19.100;2023-04-24T02:00:52;97323.78;;;9.87;100.00
33781;BME280;20097;50.832;19.100;2023-04-24T02:05:56;97314.34;;;9.80;100.00
33781;BME280;20097;50.832;19.100;2023-04-24T02:11:01;97311.28;;;9.69;100.00
33781;BME280;20097;50.832;19.100;2023-04-24T02:16:06;97303.22;;;9.64;100.00
33781;BME280;20097;50.832;19.100;2023-04-24T02:21:11;97294.78;;;9.56;100.00
33781;BME280;20097;50.832;19.100;2023-04-24T02:26:16;97296.09;;;9.45;100.00
33781;BME280;20097;50.832;19.100;2023-04-24T02:31:21;97292.63;;;9.38;100.00
33781;BME280;20097;50.832;19.100;2023-04-24T02:36:25;97283.81;;;9.33;100.00
33781;BME280;20097;50.832;19.100;2023-04-24T02:41:30;97284.97;;;9.30;100.00
33781;BME280;20097;50.832;19.100;2023-04-24T02:46:35;97284.63;;;9.33;100.00
33781;BME280;20097;50.832;19.100;2023-04-24T02:51:39;97283.19;;;9.31;100.00
33781;BME280;20097;50.832;19.100;2023-04-24T02:56:45;97295.56;;;9.29;100.00
33781;BME280;20097;50.832;19.100;2023-04-24T03:01:49;97284.72;;;9.25;100.00
33781;BME280;20097;50.832;19.100;2023-04-24T03:06:53;97294.59;;;9.30;100.00
33781;BME280;20097;50.832;19.100;2023-04-24T03:12:00;97285.59;;;9.32;100.00
33781;BME280;20097;50.832;19.100;2023-04-24T03:17:06;97278.34;;;9.28;100.00
33781;BME280;20097;50.832;19.100;2023-04-24T03:22:10;97283.75;;;9.26;100.00
33781;BME280;20097;50.832;19.100;2023-04-24T03:27:16;97282.50;;;9.22;100.00
33781;BME280;20097;50.832;19.100;2023-04-24T03:32:49;97280.09;;;9.21;100.00
33781;BME280;20097;50.832;19.100;2023-04-24T03:37:59;97278.50;;;9.20;100.00
33781;BME280;20097;50.832;19.100;2023-04-24T03:43:17;97281.69;;;9.15;100.00
33781;BME280;20097;50.832;19.100;2023-04-24T03:48:22;97278.69;;;9.18;100.00
33781;BME280;20097;50.832;19.100;2023-04-24T03:53:26;97286.88;;;9.15;100.00
33781;BME280;20097;50.832;19.100;2023-04-24T03:58:32;97282.03;;;9.12;100.00
33781;BME280;20097;50.832;19.100;2023-04-24T04:03:37;97292.28;;;9.14;100.00
33781;BME280;20097;50.832;19.100;2023-04-24T04:08:42;97293.97;;;9.28;100.00
33781;BME280;20097;50.832;19.100;2023-04-24T04:13:47;97286.03;;;9.36;100.00
33781;BME280;20097;50.832;19.100;2023-04-24T04:18:54;97281.47;;;9.44;100.00
33781;BME280;20097;50.832;19.100;2023-04-24T04:24:00;97286.34;;;9.54;100.00
33781;BME280;20097;50.832;19.100;2023-04-24T04:29:10;97288.38;;;9.58;100.00
33781;BME280;20097;50.832;19.100;2023-04-24T04:34:18;97282.19;;;9.66;100.00
33781;BME280;20097;50.832;19.100;2023-04-24T04:39:22;97282.59;;;9.69;100.00
33781;BME280;20097;50.832;19.100;2023-04-24T04:44:48;97287.28;;;9.74;100.00
33781;BME280;20097;50.832;19.100;2023-04-24T04:49:57;97288.66;;;9.77;100.00
33781;BME280;20097;50.832;19.100;2023-04-24T04:55:03;97281.66;;;9.77;100.00
33781;BME280;20097;50.832;19.100;2023-04-24T05:00:41;97284.84;;;9.79;100.00
33781;BME280;20097;50.832;19.100;2023-04-24T05:05:52;97286.09;;;9.83;100.00
33781;BME280;20097;50.832;19.100;2023-04-24T05:10:56;97288.94;;;9.88;100.00
33781;BME280;20097;50.832;19.100;2023-04-24T05:16:04;97282.75;;;10.02;100.00
33781;BME280;20097;50.832;19.100;2023-04-24T05:21:09;97284.06;;;10.13;100.00
33781;BME280;20097;50.832;19.100;2023-04-24T05:26:16;97285.72;;;10.33;100.00
33781;BME280;20097;50.832;19.100;2023-04-24T05:31:21;97284.56;;;10.49;100.00
33781;BME280;20097;50.832;19.100;2023-04-24T05:36:26;97284.78;;;10.73;100.00
33781;BME280;20097;50.832;19.100;2023-04-24T05:41:30;97288.03;;;11.01;100.00
33781;BME280;20097;50.832;19.100;2023-04-24T05:46:36;97281.63;;;11.30;100.00
33781;BME280;20097;50.832;19.100;2023-04-24T05:51:41;97274.72;;;11.62;97.58
33781;BME280;20097;50.832;19.100;2023-04-24T05:56:45;97266.81;;;11.94;90.58
33781;BME280;20097;50.832;19.100;2023-04-24T06:01:57;97275.13;;;12.29;86.48
33781;BME280;20097;50.832;19.100;2023-04-24T06:07:01;97265.84;;;12.64;82.50
33781;BME280;20097;50.832;19.100;2023-04-24T06:12:06;97272.88;;;12.95;82.45
33781;BME280;20097;50.832;19.100;2023-04-24T06:17:26;97268.44;;;13.26;79.93
33781;BME280;20097;50.832;19.100;2023-04-24T06:22:30;97267.38;;;13.52;80.51
33781;BME280;20097;50.832;19.100;2023-04-24T06:27:34;97258.00;;;13.81;75.79
33781;BME280;20097;50.832;19.100;2023-04-24T06:32:40;97259.66;;;14.11;73.09
33781;BME280;20097;50.832;19.100;2023-04-24T06:37:45;97258.09;;;14.40;70.83
33781;BME280;20097;50.832;19.100;2023-04-24T06:42:49;97262.53;;;14.69;68.54
33781;BME280;20097;50.832;19.100;2023-04-24T06:47:55;97260.31;;;14.95;67.36
33781;BME280;20097;50.832;19.100;2023-04-24T06:52:59;97261.94;;;15.20;66.73
33781;BME280;20097;50.832;19.100;2023-04-24T06:58:03;97257.53;;;15.43;65.78
33781;BME280;20097;50.832;19.100;2023-04-24T07:03:10;97271.47;;;15.67;63.98
33781;BME280;20097;50.832;19.100;2023-04-24T07:08:14;97261.38;;;15.87;62.19
33781;BME280;20097;50.832;19.100;2023-04-24T07:13:19;97260.88;;;16.13;62.08
33781;BME280;20097;50.832;19.100;2023-04-24T07:18:24;97267.66;;;16.37;58.59
33781;BME280;20097;50.832;19.100;2023-04-24T07:23:28;97262.00;;;16.57;57.26
33781;BME280;20097;50.832;19.100;2023-04-24T07:28:33;97254.41;;;16.77;57.72
33781;BME280;20097;50.832;19.100;2023-04-24T07:33:39;97255.66;;;17.02;57.38
33781;BME280;20097;50.832;19.100;2023-04-24T07:38:43;97265.25;;;17.25;51.78
33781;BME280;20097;50.832;19.100;2023-04-24T07:43:47;97273.03;;;17.48;48.96
33781;BME280;20097;50.832;19.100;2023-04-24T07:48:53;97275.09;;;17.62;49.01
33781;BME280;20097;50.832;19.100;2023-04-24T07:54:13;97267.91;;;17.79;48.99
33781;BME280;20097;50.832;19.100;2023-04-24T07:59:17;97267.38;;;17.99;48.68
33781;BME280;20097;50.832;19.100;2023-04-24T08:04:23;97281.28;;;18.11;46.91
33781;BME280;20097;50.832;19.100;2023-04-24T08:09:27;97279.47;;;18.17;46.32
33781;BME280;20097;50.832;19.100;2023-04-24T08:14:31;97267.19;;;18.27;46.43
33781;BME280;20097;50.832;19.100;2023-04-24T08:19:36;97269.41;;;18.35;45.54
33781;BME280;20097;50.832;19.100;2023-04-24T08:24:40;97266.09;;;18.45;47.17
33781;BME280;20097;50.832;19.100;2023-04-24T08:29:44;97265.00;;;18.67;46.62
33781;BME280;20097;50.832;19.100;2023-04-24T08:34:50;97268.66;;;18.88;48.07
33781;BME280;20097;50.832;19.100;2023-04-24T08:39:55;97266.09;;;18.98;47.23
33781;BME280;20097;50.832;19.100;2023-04-24T08:44:59;97262.47;;;19.04;46.03
33781;BME280;20097;50.832;19.100;2023-04-24T08:50:06;97244.19;;;19.34;46.29
33781;BME280;20097;50.832;19.100;2023-04-24T08:55:10;97236.91;;;19.51;46.41
33781;BME280;20097;50.832;19.100;2023-04-24T09:00:15;97252.84;;;19.66;45.68
33781;BME280;20097;50.832;19.100;2023-04-24T09:05:21;97253.41;;;19.68;44.94
33781;BME280;20097;50.832;19.100;2023-04-24T09:10:30;97254.25;;;19.74;44.08
33781;BME280;20097;50.832;19.100;2023-04-24T09:15:34;97248.19;;;19.83;44.19
33781;BME280;20097;50.832;19.100;2023-04-24T09:21:01;97249.97;;;19.68;40.57
33781;BME280;20097;50.832;19.100;2023-04-24T09:26:05;97251.41;;;19.85;41.29
33781;BME280;20097;50.832;19.100;2023-04-24T09:31:11;97236.63;;;19.99;41.56
33781;BME280;20097;50.832;19.100;2023-04-24T09:36:18;97233.41;;;19.92;40.84
33781;BME280;20097;50.832;19.100;2023-04-24T09:41:22;97224.06;;;20.41;42.21
33781;BME280;20097;50.832;19.100;2023-04-24T09:46:30;97234.47;;;20.68;40.72
33781;BME280;20097;50.832;19.100;2023-04-24T09:51:37;97225.16;;;20.61;39.14
33781;BME280;20097;50.832;19.100;2023-04-24T09:56:43;97228.91;;;20.70;38.55
33781;BME280;20097;50.832;19.100;2023-04-24T10:01:48;97227.63;;;21.17;38.97
33781;BME280;20097;50.832;19.100;2023-04-24T10:06:56;97224.13;;;21.42;38.78
33781;BME280;20097;50.832;19.100;2023-04-24T10:12:00;97203.97;;;21.36;38.61
33781;BME280;20097;50.832;19.100;2023-04-24T10:17:06;97209.44;;;21.85;37.92
33781;BME280;20097;50.832;19.100;2023-04-24T10:22:12;97204.06;;;22.05;37.16
33781;BME280;20097;50.832;19.100;2023-04-24T10:27:16;97190.44;;;22.21;38.48
33781;BME280;20097;50.832;19.100;2023-04-24T10:32:21;97198.22;;;22.51;37.71
33781;BME280;20097;50.832;19.100;2023-04-24T10:37:26;97204.16;;;22.33;36.30
33781;BME280;20097;50.832;19.100;2023-04-24T10:42:31;97194.66;;;22.27;37.80
33781;BME280;20097;50.832;19.100;2023-04-24T10:47:39;97192.97;;;22.41;36.02
33781;BME280;20097;50.832;19.100;2023-04-24T10:52:46;97188.13;;;22.53;35.43
33781;BME280;20097;50.832;19.100;2023-04-24T10:58:03;97187.69;;;22.80;36.34
33781;BME280;20097;50.832;19.100;2023-04-24T11:03:12;97176.28;;;23.03;36.31
33781;BME280;20097;50.832;19.100;2023-04-24T11:08:32;97182.84;;;23.16;35.37
33781;BME280;20097;50.832;19.100;2023-04-24T11:14:02;97177.25;;;23.17;33.12
33781;BME280;20097;50.832;19.100;2023-04-24T11:19:09;97172.97;;;23.50;36.53
33781;BME280;20097;50.832;19.100;2023-04-24T11:24:29;97166.50;;;23.56;35.39
33781;BME280;20097;50.832;19.100;2023-04-24T11:29:58;97170.97;;;23.37;32.24
33781;BME280;20097;50.832;19.100;2023-04-24T11:35:08;97164.13;;;23.54;35.14
33781;BME280;20097;50.832;19.100;2023-04-24T11:40:14;97163.16;;;23.69;34.02
33781;BME280;20097;50.832;19.100;2023-04-24T11:45:21;97147.44;;;23.67;36.62
33781;BME280;20097;50.832;19.100;2023-04-24T11:50:27;97153.34;;;23.41;35.16
33781;BME280;20097;50.832;19.100;2023-04-24T11:55:34;97150.22;;;23.34;35.17
33781;BME280;20097;50.832;19.100;2023-04-24T12:00:38;97152.19;;;22.94;35.52
33781;BME280;20097;50.832;19.100;2023-04-24T12:05:42;97147.47;;;22.86;34.04
33781;BME280;20097;50.832;19.100;2023-04-24T12:10:50;97139.69;;;22.90;36.00
33781;BME280;20097;50.832;19.100;2023-04-24T12:15:54;97136.22;;;22.61;35.23
33781;BME280;20097;50.832;19.100;2023-04-24T12:21:17;97144.78;;;22.86;36.21
33781;BME280;20097;50.832;19.100;2023-04-24T12:26:27;97109.69;;;22.07;43.79
33781;BME280;20097;50.832;19.100;2023-04-24T12:31:32;97098.28;;;21.53;45.80
33781;BME280;20097;50.832;19.100;2023-04-24T12:36:36;97079.75;;;21.33;45.41
33781;BME280;20097;50.832;19.100;2023-04-24T12:41:50;97075.75;;;21.35;46.34
33781;BME280;20097;50.832;19.100;2023-04-24T12:46:54;97063.28;;;21.31;48.06
33781;BME280;20097;50.832;19.100;2023-04-24T12:51:58;97059.66;;;21.12;48.32
33781;BME280;20097;50.832;19.100;2023-04-24T12:57:04;97056.00;;;20.63;48.65
33781;BME280;20097;50.832;19.100;2023-04-24T13:02:08;97055.47;;;20.15;50.24
33781;BME280;20097;50.832;19.100;2023-04-24T13:07:13;97047.72;;;19.74;50.54
33781;BME280;20097;50.832;19.100;2023-04-24T13:12:19;97035.72;;;19.41;51.31
33781;BME280;20097;50.832;19.100;2023-04-24T13:17:23;97038.72;;;19.08;51.65
33781;BME280;20097;50.832;19.100;2023-04-24T13:22:27;97055.91;;;19.05;51.91
33781;BME280;20097;50.832;19.100;2023-04-24T13:27:33;97073.16;;;18.71;51.25
33781;BME280;20097;50.832;19.100;2023-04-24T13:32:37;97071.38;;;18.45;51.92
33781;BME280;20097;50.832;19.100;2023-04-24T13:37:41;97065.81;;;18.42;53.20
33781;BME280;20097;50.832;19.100;2023-04-24T13:42:47;97069.56;;;18.19;53.60
33781;BME280;20097;50.832;19.100;2023-04-24T13:47:51;97070.00;;;18.11;54.65
33781;BME280;20097;50.832;19.100;2023-04-24T13:52:57;97062.00;;;18.01;57.07
33781;BME280;20097;50.832;19.100;2023-04-24T13:58:06;97060.34;;;17.68;59.31
33781;BME280;20097;50.832;19.100;2023-04-24T14:03:10;97059.16;;;17.54;63.04
33781;BME280;20097;50.832;19.100;2023-04-24T14:08:15;97069.53;;;17.44;61.68
33781;BME280;20097;50.832;19.100;2023-04-24T14:13:20;97069.34;;;17.46;62.24
33781;BME280;20097;50.832;19.100;2023-04-24T14:18:25;97069.53;;;17.44;62.66
33781;BME280;20097;50.832;19.100;2023-04-24T14:23:29;97073.31;;;17.48;63.53
33781;BME280;20097;50.832;19.100;2023-04-24T14:28:35;97069.72;;;17.38;66.12
33781;BME280;20097;50.832;19.100;2023-04-24T14:33:39;97072.44;;;17.21;63.57
33781;BME280;20097;50.832;19.100;2023-04-24T14:38:43;97075.84;;;17.00;65.71
33781;BME280;20097;50.832;19.100;2023-04-24T14:43:48;97065.66;;;16.87;64.14
33781;BME280;20097;50.832;19.100;2023-04-24T14:48:52;97062.94;;;16.82;64.41
33781;BME280;20097;50.832;19.100;2023-04-24T14:53:56;97058.47;;;16.83;63.76
33781;BME280;20097;50.832;19.100;2023-04-24T14:59:02;97061.97;;;16.88;61.47
33781;BME280;20097;50.832;19.100;2023-04-24T15:04:07;97062.16;;;17.03;61.64
33781;BME280;20097;50.832;19.100;2023-04-24T15:09:11;97061.31;;;17.19;61.93
33781;BME280;20097;50.832;19.100;2023-04-24T15:14:17;97061.13;;;17.26;62.08
33781;BME280;20097;50.832;19.100;2023-04-24T15:19:21;97064.69;;;17.15;60.95
33781;BME280;20097;50.832;19.100;2023-04-24T15:24:24;97056.78;;;17.36;62.54
33781;BME280;20097;50.832;19.100;2023-04-24T15:29:30;97051.72;;;17.51;60.08
33781;BME280;20097;50.832;19.100;2023-04-24T15:34:33;97055.81;;;17.64;60.54
33781;BME280;20097;50.832;19.100;2023-04-24T15:39:37;97043.50;;;17.74;60.98
33781;BME280;20097;50.832;19.100;2023-04-24T15:44:43;97042.44;;;17.70;61.86
33781;BME280;20097;50.832;19.100;2023-04-24T15:49:47;97040.63;;;17.49;62.16
33781;BME280;20097;50.832;19.100;2023-04-24T15:54:51;97036.72;;;17.35;63.05
33781;BME280;20097;50.832;19.100;2023-04-24T15:59:57;97043.09;;;17.39;63.32
33781;BME280;20097;50.832;19.100;2023-04-24T16:05:01;97037.28;;;17.37;63.11
33781;BME280;20097;50.832;19.100;2023-04-24T16:10:06;97045.94;;;17.11;64.33
33781;BME280;20097;50.832;19.100;2023-04-24T16:15:12;97043.97;;;17.02;64.46
33781;BME280;20097;50.832;19.100;2023-04-24T16:20:16;97050.91;;;16.70;65.23
33781;BME280;20097;50.832;19.100;2023-04-24T16:25:20;97050.59;;;16.66;66.56
33781;BME280;20097;50.832;19.100;2023-04-24T16:30:25;97059.97;;;16.57;67.67
33781;BME280;20097;50.832;19.100;2023-04-24T16:35:30;97063.25;;;16.36;69.96
33781;BME280;20097;50.832;19.100;2023-04-24T16:40:33;97060.56;;;16.31;71.41
33781;BME280;20097;50.832;19.100;2023-04-24T16:45:39;97058.50;;;16.16;71.95
33781;BME280;20097;50.832;19.100;2023-04-24T16:50:43;97066.91;;;16.02;73.60
33781;BME280;20097;50.832;19.100;2023-04-24T16:55:47;97062.13;;;15.99;73.68
33781;BME280;20097;50.832;19.100;2023-04-24T17:00:54;97068.22;;;15.71;74.28
33781;BME280;20097;50.832;19.100;2023-04-24T17:05:58;97071.38;;;15.45;76.21
33781;BME280;20097;50.832;19.100;2023-04-24T17:11:02;97076.66;;;15.34;77.62
33781;BME280;20097;50.832;19.100;2023-04-24T17:16:07;97081.06;;;15.17;79.18
33781;BME280;20097;50.832;19.100;2023-04-24T17:21:12;97079.25;;;15.05;80.70
33781;BME280;20097;50.832;19.100;2023-04-24T17:26:16;97091.00;;;14.91;83.00
33781;BME280;20097;50.832;19.100;2023-04-24T17:31:22;97095.13;;;14.76;84.27
33781;BME280;20097;50.832;19.100;2023-04-24T17:36:26;97096.28;;;14.68;85.69
33781;BME280;20097;50.832;19.100;2023-04-24T17:41:31;97106.44;;;14.53;88.05
33781;BME280;20097;50.832;19.100;2023-04-24T17:46:36;97106.44;;;14.42;89.88
33781;BME280;20097;50.832;19.100;2023-04-24T17:51:40;97112.69;;;14.29;91.56
33781;BME280;20097;50.832;19.100;2023-04-24T17:56:44;97108.16;;;14.18;93.64
33781;BME280;20097;50.832;19.100;2023-04-24T18:01:51;97114.31;;;14.12;95.81
33781;BME280;20097;50.832;19.100;2023-04-24T18:06:57;97123.09;;;14.06;98.00
33781;BME280;20097;50.832;19.100;2023-04-24T18:12:01;97129.56;;;14.04;99.38
33781;BME280;20097;50.832;19.100;2023-04-24T18:17:07;97131.72;;;13.95;100.00
33781;BME280;20097;50.832;19.100;2023-04-24T18:22:11;97142.09;;;13.90;100.00
33781;BME280;20097;50.832;19.100;2023-04-24T18:27:15;97143.41;;;13.81;100.00
33781;BME280;20097;50.832;19.100;2023-04-24T18:32:20;97152.44;;;13.85;100.00
33781;BME280;20097;50.832;19.100;2023-04-24T18:37:24;97154.34;;;13.78;100.00
33781;BME280;20097;50.832;19.100;2023-04-24T18:42:29;97158.28;;;13.69;100.00
33781;BME280;20097;50.832;19.100;2023-04-24T18:47:34;97156.59;;;13.56;100.00
33781;BME280;20097;50.832;19.100;2023-04-24T18:52:38;97161.66;;;13.40;100.00
33781;BME280;20097;50.832;19.100;2023-04-24T18:57:42;97161.16;;;13.31;100.00
33781;BME280;20097;50.832;19.100;2023-04-24T19:02:48;97162.66;;;13.21;100.00
33781;BME280;20097;50.832;19.100;2023-04-24T19:07:52;97173.31;;;13.01;100.00
33781;BME280;20097;50.832;19.100;2023-04-24T19:12:56;97173.72;;;12.98;100.00
33781;BME280;20097;50.832;19.100;2023-04-24T19:18:01;97175.75;;;12.96;100.00
33781;BME280;20097;50.832;19.100;2023-04-24T19:23:05;97180.09;;;12.84;100.00
33781;BME280;20097;50.832;19.100;2023-04-24T19:28:10;97184.81;;;12.76;100.00
33781;BME280;20097;50.832;19.100;2023-04-24T19:33:15;97182.03;;;12.71;100.00
33781;BME280;20097;50.832;19.100;2023-04-24T19:38:19;97176.34;;;12.74;100.00
33781;BME280;20097;50.832;19.100;2023-04-24T19:43:24;97178.97;;;12.74;100.00
33781;BME280;20097;50.832;19.100;2023-04-24T19:48:29;97177.97;;;12.75;100.00
33781;BME280;20097;50.832;19.100;2023-04-24T19:53:34;97183.84;;;12.70;100.00
33781;BME280;20097;50.832;19.100;2023-04-24T19:58:38;97176.19;;;12.69;100.00
33781;BME280;20097;50.832;19.100;2023-04-24T20:03:44;97180.88;;;12.67;100.00
33781;BME280;20097;50.832;19.100;2023-04-24T20:08:48;97184.25;;;12.67;100.00
33781;BME280;20097;50.832;19.100;2023-04-24T20:13:52;97189.00;;;12.59;100.00
33781;BME280;20097;50.832;19.100;2023-04-24T20:18:59;97187.19;;;12.53;100.00
33781;BME280;20097;50.832;19.100;2023-04-24T20:24:03;97185.88;;;12.43;100.00
33781;BME280;20097;50.832;19.100;2023-04-24T20:29:10;97185.09;;;12.36;100.00
33781;BME280;20097;50.832;19.100;2023-04-24T20:34:17;97178.31;;;12.29;100.00
33781;BME280;20097;50.832;19.100;2023-04-24T20:39:21;97176.91;;;12.26;100.00
33781;BME280;20097;50.832;19.100;2023-04-24T20:44:25;97171.19;;;12.11;100.00
33781;BME280;20097;50.832;19.100;2023-04-24T20:49:30;97175.22;;;12.07;100.00
33781;BME280;20097;50.832;19.100;2023-04-24T20:54:34;97174.22;;;12.02;100.00
33781;BME280;20097;50.832;19.100;2023-04-24T20:59:38;97171.66;;;11.95;100.00
33781;BME280;20097;50.832;19.100;2023-04-24T21:04:44;97176.53;;;11.92;100.00
33781;BME280;20097;50.832;19.100;2023-04-24T21:09:48;97174.50;;;11.87;100.00
33781;BME280;20097;50.832;19.100;2023-04-24T21:14:52;97176.94;;;11.82;100.00
33781;BME280;20097;50.832;19.100;2023-04-24T21:19:58;97184.63;;;11.77;100.00
33781;BME280;20097;50.832;19.100;2023-04-24T21:25:02;97185.47;;;11.65;100.00
33781;BME280;20097;50.832;19.100;2023-04-24T21:30:07;97184.28;;;11.54;100.00
33781;BME280;20097;50.832;19.100;2023-04-24T21:35:13;97187.88;;;11.53;100.00
33781;BME280;20097;50.832;19.100;2023-04-24T21:40:17;97192.19;;;11.35;100.00
33781;BME280;20097;50.832;19.100;2023-04-24T21:45:21;97197.22;;;11.23;100.00
33781;BME280;20097;50.832;19.100;2023-04-24T21:50:26;97200.66;;;11.17;100.00
33781;BME280;20097;50.832;19.100;2023-04-24T21:55:31;97202.88;;;11.00;100.00
33781;BME280;20097;50.832;19.100;2023-04-24T22:00:35;97205.50;;;10.94;100.00
33781;BME280;20097;50.832;19.100;2023-04-24T22:05:40;97209.31;;;10.85;100.00
33781;BME280;20097;50.832;19.100;2023-04-24T22:10:44;97202.91;;;10.74;100.00
33781;BME280;20097;50.832;19.100;2023-04-24T22:15:48;97203.09;;;10.60;100.00
33781;BME280;20097;50.832;19.100;2023-04-24T22:20:54;97206.13;;;10.57;100.00
33781;BME280;20097;50.832;19.100;2023-04-24T22:25:59;97204.50;;;10.56;100.00
33781;BME280;20097;50.832;19.100;2023-04-24T22:31:03;97207.50;;;10.46;100.00
33781;BME280;20097;50.832;19.100;2023-04-24T22:36:09;97200.28;;;10.48;100.00
33781;BME280;20097;50.832;19.100;2023-04-24T22:41:13;97204.47;;;10.49;100.00
33781;BME280;20097;50.832;19.100;2023-04-24T22:46:17;97205.91;;;10.45;100.00
33781;BME280;20097;50.832;19.100;2023-04-24T22:51:23;97208.50;;;10.45;100.00
33781;BME280;20097;50.832;19.100;2023-04-24T22:56:28;97202.88;;;10.48;100.00
33781;BME280;20097;50.832;19.100;2023-04-24T23:01:33;97204.47;;;10.49;100.00
33781;BME280;20097;50.832;19.100;2023-04-24T23:06:39;97206.09;;;10.44;100.00
33781;BME280;20097;50.832;19.100;2023-04-24T23:11:43;97202.06;;;10.41;100.00
33781;BME280;20097;50.832;19.100;2023-04-24T23:16:47;97193.25;;;10.36;100.00
33781;BME280;20097;50.832;19.100;2023-04-24T23:21:53;97198.47;;;10.29;100.00
33781;BME280;20097;50.832;19.100;2023-04-24T23:26:57;97197.25;;;10.32;100.00
33781;BME280;20097;50.832;19.100;2023-04-24T23:32:01;97204.66;;;10.28;100.00
33781;BME280;20097;50.832;19.100;2023-04-24T23:37:07;97191.00;;;10.33;100.00
33781;BME280;20097;50.832;19.100;2023-04-24T23:42:11;97191.44;;;10.36;100.00
33781;BME280;20097;50.832;19.100;2023-04-24T23:47:15;97185.22;;;10.31;100.00
33781;BME280;20097;50.832;19.100;2023-04-24T23:52:20;97181.59;;;10.25;100.00
33781;BME280;20097;50.832;19.100;2023-04-24T23:57:24;97187.22;;;10.29;100.00
